createdAt,value
2023-01-28T14:05:09.209Z,3.60
2023-01-28T14:07:55.733Z,3.55
2023-01-28T14:10:33.751Z,4.95
2023-01-28T14:13:11.595Z,3.65
2023-01-28T14:15:56.939Z,3.85
2023-01-28T14:18:42.903Z,2.83
2023-01-28T14:21:13.789Z,4.03
2023-01-28T14:23:48.307Z,3.53
2023-01-28T14:26:22.876Z,3.60
2023-01-28T14:29:12.441Z,2.65
2023-01-28T14:31:39.832Z,1.95
2023-01-28T14:34:23.041Z,3.47
2023-01-28T14:36:51.043Z,2.45
2023-01-28T14:39:21.374Z,3.47
2023-01-28T14:41:50.682Z,2.38
2023-01-28T14:44:39.883Z,2.45
2023-01-28T14:47:52.316Z,3.00
2023-01-28T14:50:34.362Z,3.08
2023-01-28T14:53:25.906Z,6.07
2023-01-28T14:56:17.497Z,3.50
2023-01-28T14:58:58.917Z,5.50
2023-01-28T15:01:29.848Z,3.67
2023-01-28T15:03:56.722Z,4.38
2023-01-28T15:06:25.803Z,3.80
2023-01-28T15:08:53.480Z,4.68
2023-01-28T15:11:25.635Z,5.05
2023-01-28T15:13:58.770Z,5.05
2023-01-28T15:16:29.073Z,7.32
2023-01-28T15:18:56.756Z,5.65
2023-01-28T15:21:25.610Z,7.30
2023-01-28T15:23:56.483Z,9.07
2023-01-28T15:26:29.152Z,7.25
2023-01-28T15:28:56.830Z,12.23
2023-01-28T15:31:30.065Z,6.75
2023-01-28T15:34:10.642Z,4.75
2023-01-28T15:36:37.388Z,4.63
2023-01-28T15:39:04.574Z,9.80
2023-01-28T15:41:38.901Z,9.55
2023-01-28T15:44:05.682Z,9.85
2023-01-28T15:46:32.587Z,9.02
2023-01-28T15:49:02.045Z,11.38
2023-01-28T15:51:35.980Z,11.95
2023-01-28T15:54:08.756Z,23.08
2023-01-28T15:56:36.336Z,35.45
2023-01-28T15:59:29.035Z,15.85
2023-01-28T16:02:24.559Z,28.50
2023-01-28T16:05:00.360Z,14.68
2023-01-28T16:07:32.629Z,11.52
2023-01-28T16:10:01.926Z,10.40
2023-01-28T16:12:29.193Z,7.40
2023-01-28T16:15:01.849Z,7.97
2023-01-28T16:17:35.755Z,9.73
2023-01-28T16:20:06.193Z,12.55
2023-01-28T16:22:40.745Z,11.45
2023-01-28T16:25:41.539Z,14.93
2023-01-28T16:28:19.782Z,15.55
2023-01-28T16:30:46.548Z,15.57
2023-01-28T16:33:21.501Z,11.50
2023-01-28T16:36:06.222Z,13.77
2023-01-28T16:38:34.297Z,13.07
2023-01-28T16:41:00.980Z,10.02
2023-01-28T16:43:27.577Z,12.10
2023-01-28T16:48:20.854Z,5.72
2023-01-28T16:50:47.488Z,7.22
2023-01-28T16:53:33.921Z,9.07
2023-01-28T16:56:01.048Z,9.25
2023-01-28T16:58:28.195Z,8.90
2023-01-28T17:00:54.919Z,9.45
2023-01-28T17:03:22.530Z,11.02
2023-01-28T17:05:49.257Z,12.82
2023-01-28T17:10:43.674Z,11.93
2023-01-28T17:13:10.380Z,18.05
2023-01-28T17:15:37.030Z,13.02
2023-01-28T17:20:30.468Z,14.05
2023-01-28T17:22:57.548Z,13.85
2023-01-28T17:25:24.156Z,15.32
2023-01-28T17:30:20.242Z,11.75
2023-01-28T17:32:46.995Z,14.23
2023-01-28T17:35:14.810Z,12.55
2023-01-28T17:37:41.956Z,12.73
2023-01-28T17:40:12.215Z,13.63
2023-01-28T17:42:38.973Z,11.82
2023-01-28T17:45:06.271Z,10.65
2023-01-28T17:47:32.942Z,14.70
2023-01-28T17:52:26.382Z,14.15
2023-01-28T17:54:53.016Z,11.73
